METAR Formatted Surface Weather Observation
Issued by NWS

Home | Current Version | Previous Version | Text Only | Print | Product List | Glossary On
Versions: 1 2
000
SAUS45 KPSR 241759
MTRNYL
METAR KNYL 241757Z 00000KT 10SM SCT180 BKN300 41/07 A2976 RMK AO2
SLP072 T04110067 10411 20317 58008



USA.gov is the U.S. government's official web portal to all federal, state and local government web resources and services.